createdAt,value
2019-03-01T00:01:53.332Z,4.50
2019-03-01T00:04:28.029Z,4.20
2019-03-01T00:07:22.027Z,4.57
2019-03-01T00:10:02.514Z,4.70
2019-03-01T00:13:05.712Z,4.07
2019-03-01T00:15:55.238Z,4.40
2019-03-01T00:18:36.062Z,4.20
2019-03-01T00:21:16.450Z,4.30
2019-03-01T00:24:13.661Z,4.33
2019-03-01T00:26:46.477Z,3.80
2019-03-01T00:29:34.691Z,4.40
2019-03-01T00:32:16.938Z,4.07
2019-03-01T00:35:20.604Z,4.30
2019-03-01T00:38:22.233Z,4.30
2019-03-01T00:41:03.313Z,3.87
2019-03-01T00:43:54.540Z,3.87
2019-03-01T00:46:22.978Z,4.47
2019-03-01T00:48:58.342Z,3.83
2019-03-01T00:51:28.574Z,3.63
2019-03-01T00:54:00.281Z,3.73
2019-03-01T00:56:29.394Z,3.77
2019-03-01T00:58:58.061Z,4.27
2019-03-01T01:01:30.479Z,3.77
2019-03-01T01:04:02.242Z,3.83
2019-03-01T01:06:30.678Z,3.80
2019-03-01T01:09:01.879Z,3.93
2019-03-01T01:11:32.965Z,4.63
2019-03-01T01:14:03.010Z,3.30
2019-03-01T01:16:35.176Z,3.57
2019-03-01T01:19:04.656Z,3.53
2019-03-01T01:21:34.238Z,4.07
2019-03-01T01:24:02.665Z,3.50
2019-03-01T01:26:32.710Z,3.50
2019-03-01T01:29:01.833Z,3.73
2019-03-01T01:31:30.815Z,3.87
2019-03-01T01:33:59.256Z,3.90
2019-03-01T01:36:30.595Z,3.83
2019-03-01T01:38:59.698Z,3.50
2019-03-01T01:41:28.111Z,3.43
2019-03-01T01:43:59.826Z,3.50
2019-03-01T01:46:29.871Z,3.73
2019-03-01T01:48:58.278Z,3.50
2019-03-01T01:51:26.723Z,3.40
2019-03-01T01:53:55.124Z,3.30
2019-03-01T01:56:23.716Z,3.70
2019-03-01T01:58:52.124Z,3.30
2019-03-01T02:01:21.577Z,3.23
2019-03-01T02:03:50.753Z,3.30
2019-03-01T02:06:22.097Z,3.10
2019-03-01T02:08:50.509Z,3.70
2019-03-01T02:11:21.347Z,3.40
2019-03-01T02:13:49.758Z,3.10
2019-03-01T02:16:18.981Z,2.97
2019-03-01T02:18:57.456Z,3.17
2019-03-01T02:21:20.727Z,2.90
2019-03-01T02:23:49.129Z,3.50
2019-03-01T02:26:18.373Z,3.13
2019-03-01T02:28:46.789Z,3.27
2019-03-01T02:31:15.272Z,3.20
2019-03-01T02:33:43.713Z,3.50
2019-03-01T02:36:12.110Z,3.17
2019-03-01T02:38:40.547Z,3.10
2019-03-01T02:41:08.953Z,3.10
2019-03-01T02:43:37.388Z,3.37
2019-03-01T02:46:05.801Z,3.30
2019-03-01T02:48:34.240Z,3.23
2019-03-01T02:51:02.637Z,3.00
2019-03-01T02:53:32.035Z,3.30
2019-03-01T02:56:00.445Z,2.93
2019-03-01T02:58:28.874Z,2.93
2019-03-01T03:00:57.290Z,2.80
2019-03-01T03:03:25.714Z,3.30
2019-03-01T03:05:55.787Z,3.03
2019-03-01T03:08:24.201Z,3.03
2019-03-01T03:10:52.640Z,2.90
2019-03-01T03:13:21.051Z,2.80
2019-03-01T03:15:51.133Z,2.50
2019-03-01T03:18:19.538Z,2.80
2019-03-01T03:20:47.966Z,3.33
2019-03-01T03:23:16.390Z,3.00
2019-03-01T03:25:44.827Z,3.30
2019-03-01T03:28:13.245Z,2.90
2019-03-01T03:30:41.679Z,3.07
2019-03-01T03:33:10.105Z,2.80
2019-03-01T03:35:38.933Z,2.80
2019-03-01T03:38:07.431Z,2.90
2019-03-01T03:40:35.849Z,2.77
2019-03-01T03:43:04.274Z,3.23
2019-03-01T03:45:32.693Z,2.50
2019-03-01T03:48:01.136Z,2.97
2019-03-01T03:50:29.535Z,2.70
2019-03-01T03:52:58.012Z,2.73
2019-03-01T03:55:26.376Z,2.50
2019-03-01T03:57:56.058Z,2.50
2019-03-01T04:00:25.312Z,2.63
2019-03-01T04:02:53.749Z,2.73
2019-03-01T04:05:22.158Z,2.70
2019-03-01T04:07:50.604Z,2.63
2019-03-01T04:10:19.008Z,2.50
2019-03-01T04:12:47.445Z,2.60
2019-03-01T04:15:18.614Z,2.07
2019-03-01T04:17:47.020Z,2.70
2019-03-01T04:20:16.893Z,2.60
2019-03-01T04:22:45.334Z,2.67
2019-03-01T04:25:13.772Z,2.77
2019-03-01T04:27:42.179Z,2.20
2019-03-01T04:30:15.690Z,2.77
2019-03-01T04:32:44.101Z,2.60
2019-03-01T04:35:13.452Z,2.27
2019-03-01T04:37:41.869Z,2.03
2019-03-01T04:40:16.918Z,2.53
2019-03-01T04:42:48.495Z,1.97
2019-03-01T04:45:17.882Z,2.30
2019-03-01T04:47:46.315Z,2.20
2019-03-01T04:50:15.051Z,2.30
2019-03-01T04:52:43.471Z,2.20
2019-03-01T04:55:15.355Z,2.50
2019-03-01T04:57:44.340Z,2.10
2019-03-01T05:00:21.166Z,2.73
2019-03-01T05:02:49.603Z,2.47
2019-03-01T05:05:18.026Z,2.07
2019-03-01T05:07:46.534Z,2.17
2019-03-01T05:10:16.253Z,2.43
2019-03-01T05:12:44.720Z,2.43
2019-03-01T05:15:18.109Z,2.40
2019-03-01T05:17:46.550Z,2.23
2019-03-01T05:20:15.220Z,2.67
2019-03-01T05:22:45.311Z,2.70
2019-03-01T05:25:13.787Z,2.20
2019-03-01T05:27:43.981Z,2.07
2019-03-01T05:30:16.752Z,2.03
2019-03-01T05:32:45.191Z,2.20
2019-03-01T05:35:13.664Z,2.27
2019-03-01T05:37:42.109Z,2.10
2019-03-01T05:40:13.308Z,1.70
2019-03-01T05:42:41.776Z,2.07
2019-03-01T05:45:15.629Z,2.20
2019-03-01T05:47:44.288Z,2.10
2019-03-01T05:50:14.364Z,2.10
2019-03-01T05:52:42.793Z,2.27
2019-03-01T05:55:12.268Z,2.13
2019-03-01T05:58:17.055Z,2.20
2019-03-01T06:00:45.864Z,2.10
2019-03-01T06:03:46.213Z,2.13
2019-03-01T06:06:17.893Z,2.07
2019-03-01T06:09:10.615Z,2.20
2019-03-01T06:11:42.277Z,1.83
2019-03-01T06:14:16.725Z,1.93
2019-03-01T06:17:06.120Z,2.20
2019-03-01T06:19:40.496Z,2.10
2019-03-01T06:22:14.757Z,1.90
2019-03-01T06:25:01.546Z,2.00
2019-03-01T06:27:52.482Z,2.07
2019-03-01T06:30:51.874Z,1.50
2019-03-01T06:33:31.625Z,2.10
2019-03-01T06:36:06.017Z,2.00
2019-03-01T06:39:06.304Z,2.03
2019-03-01T06:41:55.920Z,2.13
2019-03-01T06:44:55.794Z,2.20
2019-03-01T06:47:44.888Z,2.03
2019-03-01T06:50:17.657Z,2.17
2019-03-01T06:52:46.663Z,1.90
2019-03-01T06:55:33.558Z,1.77
2019-03-01T06:58:01.998Z,2.27
2019-03-01T07:00:32.051Z,2.13
2019-03-01T07:03:01.252Z,1.87
2019-03-01T07:05:29.670Z,1.60
2019-03-01T07:07:58.076Z,1.97
2019-03-01T07:10:26.516Z,1.73
2019-03-01T07:12:54.928Z,2.03
2019-03-01T07:15:23.365Z,2.00
2019-03-01T07:17:51.770Z,1.90
2019-03-01T07:20:20.214Z,1.77
2019-03-01T07:22:48.615Z,1.90
2019-03-01T07:25:17.140Z,1.80
2019-03-01T07:27:45.553Z,2.03
2019-03-01T07:30:13.996Z,1.80
2019-03-01T07:32:42.405Z,1.63
2019-03-01T07:35:11.401Z,2.00
2019-03-01T07:37:39.831Z,1.87
2019-03-01T07:40:10.517Z,1.83
2019-03-01T07:42:38.925Z,1.73
2019-03-01T07:45:12.480Z,1.70
2019-03-01T07:47:40.924Z,1.60
2019-03-01T07:50:13.576Z,1.70
2019-03-01T07:52:42.000Z,1.90
2019-03-01T07:55:12.046Z,1.70
2019-03-01T07:57:40.622Z,1.80
2019-03-01T08:00:16.428Z,1.70
2019-03-01T08:02:45.882Z,1.80
2019-03-01T08:05:16.410Z,2.07
2019-03-01T08:07:55.602Z,1.43
2019-03-01T08:10:20.706Z,1.90
2019-03-01T08:12:47.522Z,1.57
2019-03-01T08:15:17.136Z,1.70
2019-03-01T08:17:45.573Z,1.40
2019-03-01T08:20:15.528Z,1.90
2019-03-01T08:22:48.785Z,1.63
2019-03-01T08:25:14.135Z,1.33
2019-03-01T08:27:46.359Z,1.83
2019-03-01T08:30:15.151Z,1.50
2019-03-01T08:32:43.562Z,1.33
2019-03-01T08:35:13.556Z,1.47
2019-03-01T08:37:41.988Z,2.03
2019-03-01T08:40:15.512Z,1.60
2019-03-01T08:42:45.623Z,1.80
2019-03-01T08:45:16.741Z,2.00
2019-03-01T08:47:45.146Z,1.90
2019-03-01T08:50:17.485Z,1.53
2019-03-01T08:52:46.738Z,1.90
2019-03-01T08:55:24.037Z,1.70
2019-03-01T08:57:52.453Z,1.60
2019-03-01T09:00:26.611Z,1.63
2019-03-01T09:02:55.731Z,1.80
2019-03-01T09:05:24.168Z,1.70
2019-03-01T09:07:52.577Z,1.60
2019-03-01T09:10:21.045Z,2.00
2019-03-01T09:12:49.461Z,1.33
2019-03-01T09:15:17.877Z,1.57
2019-03-01T09:17:46.314Z,1.50
2019-03-01T09:20:15.772Z,1.30
2019-03-01T09:22:44.863Z,1.50
2019-03-01T09:25:15.928Z,1.63
2019-03-01T09:27:44.370Z,1.70
2019-03-01T09:30:15.683Z,1.43
2019-03-01T09:32:45.342Z,1.70
2019-03-01T09:35:32.272Z,1.40
2019-03-01T09:38:00.709Z,1.40
2019-03-01T09:40:29.708Z,1.70
2019-03-01T09:42:58.278Z,1.60
2019-03-01T09:45:35.809Z,1.57
2019-03-01T09:47:57.833Z,1.60
2019-03-01T09:50:26.246Z,1.60
2019-03-01T09:52:55.603Z,1.50
2019-03-01T09:55:24.743Z,1.43
2019-03-01T09:57:53.169Z,1.10
2019-03-01T10:00:30.445Z,1.33
2019-03-01T10:02:59.438Z,1.23
2019-03-01T10:05:27.868Z,1.30
2019-03-01T10:07:57.299Z,1.57
2019-03-01T10:10:28.302Z,1.50
2019-03-01T10:12:56.977Z,1.40
2019-03-01T10:15:25.410Z,1.73
2019-03-01T10:17:53.899Z,1.20
2019-03-01T10:20:22.366Z,1.50
2019-03-01T10:22:50.778Z,1.40
2019-03-01T10:25:20.707Z,1.20
2019-03-01T10:27:49.136Z,1.50
2019-03-01T10:30:24.657Z,1.30
2019-03-01T10:32:53.085Z,1.50
2019-03-01T10:35:21.502Z,1.20
2019-03-01T10:37:50.251Z,1.40
2019-03-01T10:40:25.888Z,1.03
2019-03-01T10:42:54.582Z,1.27
2019-03-01T10:45:27.553Z,1.77
2019-03-01T10:47:55.997Z,1.27
2019-03-01T10:50:24.406Z,1.50
2019-03-01T10:52:52.818Z,1.00
2019-03-01T10:55:21.597Z,1.53
2019-03-01T10:57:50.005Z,1.70
2019-03-01T11:00:26.412Z,1.20
2019-03-01T11:02:55.760Z,1.00
2019-03-01T11:05:24.750Z,1.10
2019-03-01T11:07:55.250Z,0.83
2019-03-01T11:10:28.951Z,1.17
2019-03-01T11:12:57.364Z,1.03
2019-03-01T11:15:25.802Z,1.20
2019-03-01T11:17:54.212Z,0.90
2019-03-01T11:20:23.319Z,1.13
2019-03-01T11:22:51.728Z,0.80
2019-03-01T11:25:22.181Z,1.10
2019-03-01T11:27:50.681Z,1.13
2019-03-01T11:30:24.365Z,1.10
2019-03-01T11:32:52.811Z,1.10
2019-03-01T11:35:22.519Z,1.30
2019-03-01T11:37:51.210Z,1.10
2019-03-01T11:40:24.774Z,1.33
2019-03-01T11:42:53.270Z,1.20
2019-03-01T11:45:21.761Z,1.23
2019-03-01T11:47:50.243Z,1.23
2019-03-01T11:50:22.887Z,1.40
2019-03-01T11:52:51.398Z,0.90
2019-03-01T11:55:19.873Z,1.10
2019-03-01T11:57:48.315Z,0.90
2019-03-01T12:00:20.946Z,1.10
2019-03-01T12:02:49.712Z,0.90
2019-03-01T12:05:18.361Z,1.03
2019-03-01T12:07:46.841Z,0.90
2019-03-01T12:10:17.979Z,0.87
2019-03-01T12:12:46.459Z,1.17
2019-03-01T12:15:14.994Z,1.00
2019-03-01T12:17:43.442Z,1.07
2019-03-01T12:20:17.589Z,1.03
2019-03-01T12:22:47.377Z,0.90
2019-03-01T12:25:15.828Z,0.90
2019-03-01T12:27:44.241Z,0.80
2019-03-01T12:30:18.165Z,0.80
2019-03-01T12:32:46.706Z,1.17
2019-03-01T12:35:15.170Z,0.87
2019-03-01T12:37:43.597Z,0.87
2019-03-01T12:40:25.845Z,0.80
2019-03-01T12:42:54.286Z,0.70
2019-03-01T12:45:22.699Z,0.90
2019-03-01T12:47:51.129Z,0.87
2019-03-01T12:50:20.118Z,1.00
2019-03-01T12:52:49.423Z,0.83
2019-03-01T12:55:25.825Z,0.90
2019-03-01T12:57:54.399Z,0.87
2019-03-01T13:00:28.479Z,0.97
2019-03-01T13:02:56.909Z,0.90
2019-03-01T13:05:25.734Z,1.10
2019-03-01T13:07:55.400Z,0.80
2019-03-01T13:10:26.515Z,0.90
2019-03-01T13:12:54.949Z,0.93
2019-03-01T13:15:23.922Z,0.90
2019-03-01T13:17:53.795Z,0.83
2019-03-01T13:20:22.249Z,0.90
2019-03-01T13:22:50.716Z,0.90
2019-03-01T13:25:20.773Z,0.80
2019-03-01T13:27:52.608Z,0.90
2019-03-01T13:30:24.415Z,0.90
2019-03-01T13:32:54.849Z,0.87
2019-03-01T13:35:26.065Z,1.10
2019-03-01T13:37:55.559Z,0.87
2019-03-01T13:40:24.501Z,1.00
2019-03-01T13:42:53.252Z,0.90
2019-03-01T13:45:25.783Z,1.10
2019-03-01T13:47:54.197Z,0.90
2019-03-01T13:50:22.868Z,1.10
2019-03-01T13:52:51.327Z,0.80
2019-03-01T13:55:22.003Z,0.80
2019-03-01T13:57:51.125Z,0.87
2019-03-01T14:00:21.761Z,0.90
2019-03-01T14:02:50.247Z,0.67
2019-03-01T14:05:18.730Z,0.77
2019-03-01T14:07:47.505Z,0.80
2019-03-01T14:10:17.949Z,0.80
2019-03-01T14:12:47.458Z,0.90
2019-03-01T14:15:17.115Z,0.90
2019-03-01T14:17:46.629Z,0.90
2019-03-01T14:20:21.015Z,1.00
2019-03-01T14:22:49.744Z,1.00
2019-03-01T14:25:18.266Z,0.97
2019-03-01T14:27:46.741Z,0.60
2019-03-01T14:30:30.168Z,0.77
2019-03-01T14:32:58.806Z,0.90
2019-03-01T14:35:27.373Z,0.80
2019-03-01T14:37:57.427Z,0.70
2019-03-01T14:40:26.055Z,0.60
2019-03-01T14:42:54.452Z,0.87
2019-03-01T14:45:28.263Z,0.90
2019-03-01T14:47:57.051Z,1.00
2019-03-01T14:50:30.008Z,1.00
2019-03-01T14:52:59.653Z,1.07
2019-03-01T14:55:40.663Z,1.00
2019-03-01T14:58:22.324Z,0.83
2019-03-01T15:00:52.669Z,1.00
2019-03-01T15:03:32.117Z,1.10
2019-03-01T15:06:00.558Z,1.03
2019-03-01T15:08:28.999Z,1.10
2019-03-01T15:11:04.430Z,1.10
2019-03-01T15:13:31.392Z,1.27
2019-03-01T15:16:04.730Z,1.00
2019-03-01T15:18:32.358Z,1.33
2019-03-01T15:21:02.777Z,1.10
2019-03-01T15:23:31.430Z,1.20
2019-03-01T15:25:59.844Z,1.20
2019-03-01T15:28:28.279Z,1.03
2019-03-01T15:30:57.328Z,1.00
2019-03-01T15:33:27.187Z,1.07
2019-03-01T15:35:55.632Z,1.10
2019-03-01T15:38:27.748Z,1.20
2019-03-01T15:40:54.272Z,1.60
2019-03-01T15:43:22.673Z,1.23
2019-03-01T15:45:51.118Z,1.13
2019-03-01T15:48:19.809Z,1.50
2019-03-01T15:50:48.265Z,1.10
2019-03-01T15:53:16.675Z,1.30
2019-03-01T15:55:45.109Z,1.17
2019-03-01T15:58:14.093Z,1.70
2019-03-01T16:00:42.661Z,1.63
2019-03-01T16:03:11.075Z,1.10
2019-03-01T16:05:40.770Z,1.20
2019-03-01T16:08:10.363Z,1.37
2019-03-01T16:10:38.798Z,1.50
2019-03-01T16:13:08.503Z,1.10
2019-03-01T16:15:40.065Z,1.30
2019-03-01T16:18:08.478Z,1.37
2019-03-01T16:20:39.827Z,1.40
2019-03-01T16:23:08.247Z,1.23
2019-03-01T16:25:36.974Z,1.70
2019-03-01T16:28:05.395Z,1.40
2019-03-01T16:30:34.090Z,1.40
2019-03-01T16:33:02.762Z,1.60
2019-03-01T16:35:31.206Z,1.27
2019-03-01T16:38:01.643Z,1.53
2019-03-01T16:40:30.939Z,1.40
2019-03-01T16:42:59.360Z,1.30
2019-03-01T16:45:27.794Z,1.67
2019-03-01T16:47:56.206Z,1.60
2019-03-01T16:50:24.647Z,1.50
2019-03-01T16:52:56.391Z,1.37
2019-03-01T16:55:29.022Z,1.60
2019-03-01T16:58:06.894Z,1.60
2019-03-01T17:00:30.165Z,1.50
2019-03-01T17:03:16.854Z,1.20
2019-03-01T17:05:46.493Z,1.60
2019-03-01T17:08:26.566Z,1.60
2019-03-01T17:10:56.647Z,1.60
2019-03-01T17:13:27.107Z,1.87
2019-03-01T17:15:56.416Z,1.60
2019-03-01T17:18:24.817Z,2.10
2019-03-01T17:20:53.256Z,1.83
2019-03-01T17:23:21.666Z,1.67
2019-03-01T17:25:50.113Z,1.83
2019-03-01T17:28:23.635Z,1.90
2019-03-01T17:30:50.756Z,1.97
2019-03-01T17:33:18.678Z,2.10
2019-03-01T17:35:47.551Z,2.07
2019-03-01T17:38:15.963Z,2.30
2019-03-01T17:40:44.402Z,2.20
2019-03-01T17:43:12.864Z,2.10
2019-03-01T17:45:41.329Z,2.17
2019-03-01T17:48:09.748Z,2.27
2019-03-01T17:50:38.201Z,2.27
2019-03-01T17:53:09.575Z,2.10
2019-03-01T17:55:37.577Z,2.47
2019-03-01T17:58:08.848Z,2.30
2019-03-01T18:00:38.465Z,2.40
2019-03-01T18:03:06.916Z,2.10
2019-03-01T18:05:36.925Z,2.37
2019-03-01T18:08:05.515Z,2.30
2019-03-01T18:10:35.553Z,2.60
2019-03-01T18:13:05.541Z,2.27
2019-03-01T18:15:33.950Z,2.57
2019-03-01T18:18:02.391Z,2.50
2019-03-01T18:20:33.862Z,2.37
2019-03-01T18:23:02.370Z,2.37
2019-03-01T18:25:30.958Z,2.97
2019-03-01T18:27:59.378Z,2.50
2019-03-01T18:30:30.058Z,2.50
2019-03-01T18:32:58.503Z,2.50
2019-03-01T18:35:26.936Z,2.73
2019-03-01T18:37:56.124Z,2.80
2019-03-01T18:40:24.693Z,2.70
2019-03-01T18:42:53.102Z,2.73
2019-03-01T18:45:22.489Z,2.47
2019-03-01T18:47:50.906Z,2.60
2019-03-01T18:50:31.298Z,2.47
2019-03-01T18:52:59.135Z,2.57
2019-03-01T18:55:27.548Z,2.33
2019-03-01T18:57:55.985Z,2.63
2019-03-01T19:00:35.564Z,2.80
2019-03-01T19:03:04.343Z,2.40
2019-03-01T19:05:32.946Z,2.63
2019-03-01T19:08:04.866Z,2.60
2019-03-01T19:10:31.469Z,2.60
2019-03-01T19:12:59.902Z,2.50
2019-03-01T19:15:29.949Z,2.60
2019-03-01T19:18:01.346Z,2.77
2019-03-01T19:20:32.605Z,2.47
2019-03-01T19:23:01.042Z,2.87
2019-03-01T19:25:29.444Z,2.90
2019-03-01T19:27:57.858Z,2.27
2019-03-01T19:30:26.361Z,2.37
2019-03-01T19:32:54.778Z,2.43
2019-03-01T19:35:28.563Z,2.57
2019-03-01T19:37:53.273Z,2.60
2019-03-01T19:40:23.771Z,2.77
2019-03-01T19:42:52.176Z,2.60
2019-03-01T19:45:20.712Z,2.93
2019-03-01T19:47:49.104Z,2.90
2019-03-01T19:50:29.849Z,2.47
2019-03-01T19:52:58.277Z,2.30
2019-03-01T19:55:26.708Z,2.23
2019-03-01T19:57:55.146Z,2.37
2019-03-01T20:00:30.438Z,2.40
2019-03-01T20:02:59.472Z,2.47
2019-03-01T20:05:32.021Z,2.73
2019-03-01T20:07:59.577Z,2.37
2019-03-01T20:10:28.918Z,2.40
2019-03-01T20:12:57.659Z,2.50
2019-03-01T20:15:27.437Z,2.30
2019-03-01T20:17:56.454Z,2.60
2019-03-01T20:20:25.801Z,2.40
2019-03-01T20:22:55.398Z,2.20
2019-03-01T20:25:23.797Z,2.37
2019-03-01T20:27:52.243Z,2.40
2019-03-01T20:30:30.131Z,2.20
2019-03-01T20:32:56.446Z,2.13
2019-03-01T20:35:25.893Z,2.50
2019-03-01T20:37:55.657Z,2.57
2019-03-01T20:40:28.483Z,2.43
2019-03-01T20:43:01.259Z,2.30
2019-03-01T20:45:31.809Z,2.47
2019-03-01T20:48:01.723Z,2.33
2019-03-01T20:50:36.501Z,2.40
2019-03-01T20:53:05.037Z,2.50
2019-03-01T20:55:37.024Z,2.40
2019-03-01T20:58:04.336Z,2.40
2019-03-01T21:00:33.954Z,2.40
2019-03-01T21:03:02.383Z,2.47
2019-03-01T21:05:30.885Z,2.00
2019-03-01T21:07:59.305Z,2.30
2019-03-01T21:10:29.844Z,2.37
2019-03-01T21:12:58.264Z,2.20
2019-03-01T21:15:27.585Z,2.23
2019-03-01T21:17:57.111Z,2.43
2019-03-01T21:20:26.285Z,2.70
2019-03-01T21:22:56.329Z,2.47
2019-03-01T21:25:25.782Z,2.53
2019-03-01T21:27:57.467Z,2.30
2019-03-01T21:30:26.454Z,2.50
2019-03-01T21:32:56.193Z,2.53
2019-03-01T21:35:24.679Z,2.40
2019-03-01T21:37:53.182Z,2.80
2019-03-01T21:40:21.597Z,2.50
2019-03-01T21:42:52.675Z,2.40
2019-03-01T21:45:22.385Z,2.47
2019-03-01T21:47:51.659Z,2.40
2019-03-01T21:50:20.271Z,2.63
2019-03-01T21:52:48.686Z,2.83
2019-03-01T21:55:28.623Z,2.73
2019-03-01T21:58:03.411Z,3.00
2019-03-01T22:00:34.851Z,2.63
2019-03-01T22:03:03.401Z,2.63
2019-03-01T22:05:33.519Z,2.60
2019-03-01T22:08:02.200Z,3.07
2019-03-01T22:10:35.668Z,2.77
2019-03-01T22:13:03.450Z,2.97
2019-03-01T22:15:31.908Z,2.80
2019-03-01T22:18:00.618Z,2.80
2019-03-01T22:20:29.034Z,3.03
2019-03-01T22:22:57.465Z,2.97
2019-03-01T22:25:25.906Z,2.33
2019-03-01T22:27:57.699Z,2.90
2019-03-01T22:30:37.342Z,3.07
2019-03-01T22:33:06.602Z,2.40
2019-03-01T22:35:35.017Z,2.60
2019-03-01T22:38:04.629Z,2.80
2019-03-01T22:40:34.100Z,2.90
2019-03-01T22:43:02.546Z,2.80
2019-03-01T22:45:31.014Z,2.80
2019-03-01T22:47:59.459Z,3.03
2019-03-01T22:50:27.866Z,2.93
2019-03-01T22:52:56.779Z,2.80
2019-03-01T22:55:25.213Z,2.70
2019-03-01T22:57:57.727Z,2.77
2019-03-01T23:00:54.428Z,2.50
2019-03-01T23:03:20.375Z,2.70
2019-03-01T23:05:50.080Z,2.70
2019-03-01T23:08:20.193Z,2.67
2019-03-01T23:10:50.379Z,2.63
2019-03-01T23:13:20.707Z,2.20
2019-03-01T23:15:52.902Z,2.67
2019-03-01T23:18:21.476Z,2.40
2019-03-01T23:20:51.521Z,2.70
2019-03-01T23:23:28.624Z,2.93
2019-03-01T23:25:57.025Z,2.67
2019-03-01T23:28:25.471Z,2.47
2019-03-01T23:30:56.343Z,2.97
2019-03-01T23:33:27.786Z,2.47
2019-03-01T23:35:54.850Z,2.33
2019-03-01T23:38:23.426Z,2.60
2019-03-01T23:40:51.845Z,2.73
2019-03-01T23:43:20.290Z,2.50
2019-03-01T23:45:49.915Z,2.63
2019-03-01T23:48:18.785Z,2.90
2019-03-01T23:50:47.214Z,2.50
2019-03-01T23:53:15.665Z,2.67
2019-03-01T23:55:44.442Z,2.80
2019-03-01T23:58:15.807Z,2.80
